Time;durP1;ratioP1;P1;durP2;ratioP2;P2;SDS_P1;SDS_P2;PMS_P1;PMS_P2;Temp;Humidity;BMP_temperature;BMP_pressure;BME280_temperature;BME280_humidity;BME280_pressure;Samples;Min_cycle;Max_cycle;Signal;HPM_P1;HPM_P2
2022/10/17 00:00:57;;;;;;;7.50;3.28;;;15.30;99.90;;;;;;5031216;28;20036;-79
2022/10/17 00:03:36;;;;;;;4.05;2.78;;;15.30;99.90;;;;;;5030892;28;20117;-79
2022/10/17 00:06:10;;;;;;;4.50;3.17;;;15.20;99.90;;;;;;5031046;28;20049;-79
2022/10/17 00:08:40;;;;;;;7.78;3.10;;;15.20;99.90;;;;;;5030201;28;20033;-79
2022/10/17 00:11:15;;;;;;;4.88;3.00;;;15.10;99.90;;;;;;5032933;28;20032;-78
2022/10/17 00:13:41;;;;;;;4.10;2.50;;;15.10;99.90;;;;;;5032298;28;20362;-78
2022/10/17 00:16:07;;;;;;;7.10;3.30;;;15.10;99.90;;;;;;5036643;28;20033;-80
2022/10/17 00:18:33;;;;;;;7.05;2.85;;;15.10;99.90;;;;;;5023276;28;20041;-79
2022/10/17 00:20:58;;;;;;;7.13;3.05;;;15.10;99.90;;;;;;5034826;28;20426;-78
2022/10/17 00:23:26;;;;;;;4.30;2.70;;;15.00;99.90;;;;;;5038391;28;20583;-77
2022/10/17 00:26:03;;;;;;;7.93;2.70;;;14.90;99.90;;;;;;5033544;28;20818;-78
2022/10/17 00:28:30;;;;;;;7.70;2.72;;;14.90;99.90;;;;;;5016167;28;20033;-79
2022/10/17 00:31:01;;;;;;;12.18;2.50;;;14.90;99.90;;;;;;5019414;28;20063;-78
2022/10/17 00:33:28;;;;;;;4.97;2.40;;;14.90;99.90;;;;;;5034349;28;20490;-79
2022/10/17 00:36:15;;;;;;;5.82;2.65;;;14.90;99.90;;;;;;5019077;28;20029;-79
2022/10/17 00:38:43;;;;;;;7.90;2.63;;;14.80;99.90;;;;;;5019431;28;20029;-79
2022/10/17 00:41:15;;;;;;;8.57;2.40;;;14.80;99.90;;;;;;5021262;28;20029;-79
2022/10/17 00:44:07;;;;;;;6.20;2.72;;;14.80;99.90;;;;;;5035759;28;20029;-80
2022/10/17 00:46:39;;;;;;;4.80;2.42;;;14.80;99.90;;;;;;5038135;28;20037;-77
2022/10/17 00:49:08;;;;;;;4.85;2.00;;;14.80;99.90;;;;;;5041393;28;20022;-78
2022/10/17 00:51:36;;;;;;;4.88;2.47;;;14.70;99.90;;;;;;5032736;28;20101;-79
2022/10/17 00:54:03;;;;;;;4.60;2.20;;;14.70;99.90;;;;;;5028577;28;20049;-79
2022/10/17 00:56:35;;;;;;;5.68;2.33;;;14.60;99.90;;;;;;5035066;28;20030;-79
2022/10/17 00:59:01;;;;;;;4.15;2.20;;;14.60;99.90;;;;;;5030680;28;20059;-78
2022/10/17 01:01:26;;;;;;;8.23;2.28;;;14.60;99.90;;;;;;5048028;28;20025;-81
2022/10/17 01:03:52;;;;;;;4.50;2.15;;;14.50;99.90;;;;;;5040799;28;20044;-79
2022/10/17 01:06:18;;;;;;;5.63;2.15;;;14.50;99.90;;;;;;5032982;28;20037;-77
2022/10/17 01:08:44;;;;;;;3.97;2.38;;;14.50;99.90;;;;;;5030550;28;20029;-79
2022/10/17 01:11:16;;;;;;;6.20;2.40;;;14.50;99.90;;;;;;5037836;28;20052;-79
2022/10/17 01:13:51;;;;;;;7.32;2.55;;;14.50;99.90;;;;;;5047291;28;20079;-78
2022/10/17 01:16:34;;;;;;;3.53;2.30;;;14.50;99.90;;;;;;5045318;28;20033;-79
2022/10/17 01:19:03;;;;;;;4.28;1.92;;;14.40;99.90;;;;;;5044884;28;20089;-79
2022/10/17 01:21:58;;;;;;;6.53;2.55;;;14.40;99.90;;;;;;5034378;28;20029;-81
2022/10/17 01:24:47;;;;;;;7.90;2.42;;;14.30;99.90;;;;;;5030209;28;20029;-80
2022/10/17 01:27:36;;;;;;;5.60;2.40;;;14.30;99.90;;;;;;5038864;28;20061;-80
2022/10/17 01:30:39;;;;;;;6.45;2.10;;;14.20;99.90;;;;;;4993652;28;20427;-80
2022/10/17 01:33:20;;;;;;;3.55;1.90;;;14.20;99.90;;;;;;5030282;28;20075;-81
2022/10/17 01:36:07;;;;;;;3.70;2.05;;;14.10;99.90;;;;;;5033391;28;20022;-80
2022/10/17 01:38:40;;;;;;;2.88;1.90;;;14.10;99.90;;;;;;5017081;28;20025;-82
2022/10/17 01:41:29;;;;;;;7.18;2.08;;;14.00;99.90;;;;;;5037794;28;20029;-80
2022/10/17 01:44:21;;;;;;;4.75;2.20;;;14.00;99.90;;;;;;5027887;28;20026;-81
2022/10/17 01:46:55;;;;;;;5.28;2.00;;;13.90;99.90;;;;;;5039346;28;20040;-80
2022/10/17 01:49:25;;;;;;;6.22;2.58;;;13.90;99.90;;;;;;5020069;28;20029;-81
2022/10/17 01:52:07;;;;;;;6.57;2.42;;;13.90;99.90;;;;;;5017140;28;20559;-81
2022/10/17 01:55:03;;;;;;;5.13;2.33;;;13.90;99.90;;;;;;5035202;28;20057;-80
2022/10/17 01:57:34;;;;;;;4.43;1.95;;;13.80;99.90;;;;;;5039353;28;20029;-77
2022/10/17 02:00:04;;;;;;;2.70;2.00;;;13.90;99.90;;;;;;5022312;28;20515;-80
2022/10/17 02:02:31;;;;;;;4.32;2.30;;;13.80;99.90;;;;;;5034340;28;20091;-81
2022/10/17 02:04:57;;;;;;;5.43;2.80;;;13.80;99.90;;;;;;5032040;28;20120;-80
2022/10/17 02:07:22;;;;;;;6.25;2.38;;;13.80;99.90;;;;;;5033075;28;20073;-82
2022/10/17 02:09:57;;;;;;;7.80;2.05;;;13.80;99.90;;;;;;5023647;28;20017;-80
2022/10/17 02:12:55;;;;;;;11.13;2.17;;;13.80;99.90;;;;;;5033608;28;20037;-79
2022/10/17 02:15:45;;;;;;;4.65;2.40;;;13.70;99.90;;;;;;5038845;28;20024;-80
2022/10/17 02:18:28;;;;;;;5.40;2.17;;;13.70;99.90;;;;;;5052602;23;20119;-74
2022/10/17 02:21:04;;;;;;;3.78;2.20;;;13.70;99.90;;;;;;5008090;28;21483;-74
2022/10/17 02:23:52;;;;;;;6.95;2.20;;;13.70;99.90;;;;;;5006670;28;20471;-73
2022/10/17 02:26:26;;;;;;;7.25;2.60;;;13.60;99.90;;;;;;5005821;28;20022;-74
2022/10/17 02:29:12;;;;;;;9.38;1.65;;;13.60;99.90;;;;;;5002974;28;20562;-74
2022/10/17 02:32:24;;;;;;;3.88;1.90;;;13.60;99.90;;;;;;4985579;28;20034;-74
2022/10/17 02:34:54;;;;;;;3.30;1.48;;;13.60;99.90;;;;;;4958901;28;20084;-74
2022/10/17 02:37:26;;;;;;;5.57;1.90;;;13.60;99.90;;;;;;4991997;28;20415;-74
2022/10/17 02:39:55;;;;;;;6.20;1.90;;;13.60;99.90;;;;;;4988249;28;20164;-74
2022/10/17 02:42:23;;;;;;;2.78;1.70;;;13.60;99.90;;;;;;4988440;28;20101;-75
2022/10/17 02:44:49;;;;;;;7.70;2.38;;;13.50;99.90;;;;;;4993800;28;20019;-75
2022/10/17 02:47:15;;;;;;;3.55;1.52;;;13.50;99.90;;;;;;5006155;28;20383;-74
2022/10/17 02:49:44;;;;;;;2.97;1.80;;;13.50;99.90;;;;;;4988608;28;20132;-74
2022/10/17 02:52:44;;;;;;;7.60;2.22;;;13.50;99.90;;;;;;4999433;28;20018;-73
2022/10/17 02:55:16;;;;;;;5.93;2.63;;;13.50;99.90;;;;;;4985233;28;20039;-73
2022/10/17 02:57:49;;;;;;;7.38;2.72;;;13.60;99.90;;;;;;4989911;28;20029;-73
2022/10/17 03:00:20;;;;;;;9.63;3.17;;;13.50;99.90;;;;;;4988461;28;20022;-74
2022/10/17 03:02:51;;;;;;;7.43;3.28;;;13.50;99.90;;;;;;5001960;28;20033;-74
2022/10/17 03:05:20;;;;;;;8.07;3.03;;;13.40;99.90;;;;;;4984131;28;20049;-73
2022/10/17 03:07:53;;;;;;;9.68;3.13;;;13.40;99.90;;;;;;4988572;28;20037;-74
2022/10/17 03:10:18;;;;;;;4.05;2.75;;;13.30;99.90;;;;;;4991512;28;20027;-74
2022/10/17 03:12:44;;;;;;;9.75;3.30;;;13.30;99.90;;;;;;4987886;28;20089;-73
2022/10/17 03:15:13;;;;;;;4.60;2.83;;;13.20;99.90;;;;;;4987960;28;20443;-73
2022/10/17 03:17:42;;;;;;;7.55;3.15;;;13.20;99.90;;;;;;4991193;28;20190;-74
2022/10/17 03:20:11;;;;;;;6.07;2.78;;;13.20;99.90;;;;;;4988003;28;20022;-74
2022/10/17 03:22:36;;;;;;;6.70;3.33;;;13.10;99.90;;;;;;4986589;28;20031;-74
2022/10/17 03:25:02;;;;;;;7.07;3.35;;;13.10;99.90;;;;;;4988110;28;20018;-74
2022/10/17 03:27:28;;;;;;;6.85;2.92;;;13.00;99.90;;;;;;5006314;28;20060;-74
2022/10/17 03:29:59;;;;;;;9.55;3.00;;;13.00;99.90;;;;;;4985918;28;20106;-74
2022/10/17 03:32:25;;;;;;;4.72;2.33;;;13.00;99.90;;;;;;4990232;28;20085;-73
2022/10/17 03:34:53;;;;;;;5.40;3.20;;;13.00;99.90;;;;;;4986765;28;20046;-73
2022/10/17 03:37:19;;;;;;;5.30;2.47;;;12.90;99.90;;;;;;5003692;28;20077;-74
2022/10/17 03:39:44;;;;;;;5.13;2.53;;;12.90;99.90;;;;;;4983951;28;20058;-73
2022/10/17 03:42:10;;;;;;;6.55;2.55;;;12.80;99.90;;;;;;4981384;28;20038;-73
2022/10/17 03:44:38;;;;;;;7.70;3.33;;;12.80;99.90;;;;;;4987155;28;20034;-73
2022/10/17 03:47:04;;;;;;;4.57;3.05;;;12.80;99.90;;;;;;4989522;28;20050;-74
2022/10/17 03:49:33;;;;;;;11.77;3.03;;;12.80;99.90;;;;;;4993705;28;20068;-74
2022/10/17 03:51:58;;;;;;;6.53;2.85;;;12.80;99.90;;;;;;4993415;28;20434;-74
2022/10/17 03:54:27;;;;;;;7.90;3.42;;;12.70;99.90;;;;;;4989695;28;20030;-73
2022/10/17 03:56:53;;;;;;;10.65;2.67;;;12.70;99.90;;;;;;4988270;28;20380;-74
2022/10/17 03:59:18;;;;;;;6.50;2.53;;;12.70;99.90;;;;;;4993292;28;20030;-74
2022/10/17 04:01:44;;;;;;;8.27;3.15;;;12.70;99.90;;;;;;4987567;28;20030;-74
2022/10/17 04:04:16;;;;;;;7.38;3.00;;;12.70;99.90;;;;;;4987203;28;20062;-74
2022/10/17 04:06:41;;;;;;;6.15;2.58;;;12.70;99.90;;;;;;5011097;28;20427;-73
2022/10/17 04:09:10;;;;;;;6.28;2.50;;;12.60;99.90;;;;;;4991390;28;20185;-73
2022/10/17 04:11:36;;;;;;;2.75;1.67;;;12.60;99.90;;;;;;4993762;28;20541;-74
2022/10/17 04:14:04;;;;;;;6.47;2.42;;;12.60;99.90;;;;;;4991415;28;20026;-73
2022/10/17 04:16:33;;;;;;;5.22;2.53;;;12.50;99.90;;;;;;5003836;28;20023;-73
2022/10/17 04:18:59;;;;;;;5.72;2.13;;;12.50;99.90;;;;;;4990472;28;20026;-73
2022/10/17 04:21:27;;;;;;;10.52;2.70;;;12.60;99.90;;;;;;4987588;28;20045;-73
2022/10/17 04:24:00;;;;;;;3.20;1.73;;;12.60;99.90;;;;;;4994037;28;20122;-73
2022/10/17 04:26:26;;;;;;;7.83;2.70;;;12.50;99.90;;;;;;4991438;28;20093;-73
2022/10/17 04:29:01;;;;;;;7.00;2.40;;;12.50;99.90;;;;;;5010381;28;20034;-73
2022/10/17 04:31:29;;;;;;;8.77;2.05;;;12.50;99.90;;;;;;4989297;28;21315;-73
2022/10/17 04:34:07;;;;;;;12.25;2.70;;;12.50;99.90;;;;;;5006585;28;20092;-73
2022/10/17 04:36:35;;;;;;;6.25;2.33;;;12.50;99.90;;;;;;4991356;28;20058;-73
2022/10/17 04:39:03;;;;;;;81.30;68.25;;;12.60;99.90;;;;;;4994172;28;20390;-73
2022/10/17 04:41:29;;;;;;;13.65;10.15;;;12.60;99.90;;;;;;4995787;28;20074;-73
2022/10/17 04:43:54;;;;;;;11.20;5.18;;;12.60;99.90;;;;;;4994466;28;20037;-73
2022/10/17 04:46:20;;;;;;;6.93;3.42;;;12.60;99.90;;;;;;4989761;28;20084;-73
2022/10/17 04:48:46;;;;;;;4.97;2.25;;;12.60;99.90;;;;;;4993841;28;20061;-73
2022/10/17 04:51:17;;;;;;;3.45;2.13;;;12.60;99.90;;;;;;4993956;28;20144;-73
2022/10/17 04:53:43;;;;;;;6.32;2.40;;;12.60;99.90;;;;;;4993386;28;20022;-73
2022/10/17 04:56:23;;;;;;;9.18;3.00;;;12.60;99.90;;;;;;4992043;28;20030;-74
2022/10/17 04:58:49;;;;;;;4.82;2.53;;;12.60;99.90;;;;;;5005423;28;20483;-73
2022/10/17 05:01:22;;;;;;;8.82;3.67;;;12.60;99.90;;;;;;4990070;28;20553;-73
2022/10/17 05:03:48;;;;;;;12.73;3.20;;;12.60;99.90;;;;;;4988445;28;20050;-73
2022/10/17 05:06:33;;;;;;;6.80;3.03;;;12.60;99.90;;;;;;4994244;28;20379;-73
2022/10/17 05:08:59;;;;;;;6.03;3.10;;;12.50;99.90;;;;;;4991540;28;20026;-73
2022/10/17 05:11:27;;;;;;;6.93;3.17;;;12.40;99.90;;;;;;4991429;28;20492;-73
2022/10/17 05:13:55;;;;;;;4.60;2.60;;;12.40;99.90;;;;;;4989656;28;20502;-73
2022/10/17 05:16:21;;;;;;;10.35;3.25;;;12.40;99.90;;;;;;4993904;28;20034;-71
2022/10/17 05:18:49;;;;;;;8.55;2.72;;;12.30;99.90;;;;;;4999163;28;20030;-71
2022/10/17 05:21:15;;;;;;;4.75;3.08;;;12.30;99.90;;;;;;5004128;28;20497;-72
2022/10/17 05:23:41;;;;;;;9.50;3.03;;;12.30;99.90;;;;;;5005408;28;20038;-72
2022/10/17 05:26:06;;;;;;;9.48;3.42;;;12.20;99.90;;;;;;4989995;28;20041;-72
2022/10/17 05:28:33;;;;;;;8.30;3.13;;;12.20;99.90;;;;;;4992292;28;20514;-73
2022/10/17 05:31:03;;;;;;;10.98;3.45;;;12.20;99.90;;;;;;5005126;28;20505;-72
2022/10/17 05:33:29;;;;;;;8.23;3.78;;;12.30;99.90;;;;;;4990639;28;20022;-73
2022/10/17 05:36:05;;;;;;;6.53;2.80;;;12.30;99.90;;;;;;4991654;28;20045;-73
2022/10/17 05:38:31;;;;;;;6.30;3.10;;;12.30;99.90;;;;;;4992383;28;20045;-71
2022/10/17 05:41:01;;;;;;;8.73;3.20;;;12.40;99.90;;;;;;4996753;28;20030;-73
2022/10/17 05:43:28;;;;;;;10.57;2.60;;;12.40;99.90;;;;;;4996280;28;20368;-73
2022/10/17 05:45:54;;;;;;;8.20;2.88;;;12.30;99.90;;;;;;4995899;28;20030;-73
2022/10/17 05:48:20;;;;;;;7.30;3.33;;;12.30;99.90;;;;;;4992668;28;20495;-73
2022/10/17 05:50:49;;;;;;;8.40;3.25;;;12.40;99.90;;;;;;4980276;28;20472;-66
2022/10/17 05:53:17;;;;;;;7.15;3.13;;;12.30;99.90;;;;;;4984858;28;20026;-66
2022/10/17 05:55:43;;;;;;;7.22;2.70;;;12.40;99.90;;;;;;4986606;28;20557;-66
2022/10/17 05:58:08;;;;;;;6.55;2.67;;;12.40;99.90;;;;;;4989006;28;20026;-66
2022/10/17 06:00:40;;;;;;;6.82;2.30;;;12.50;99.90;;;;;;4991957;28;20034;-65
2022/10/17 06:03:05;;;;;;;7.78;3.20;;;12.40;99.90;;;;;;4978537;28;20038;-74
2022/10/17 06:05:34;;;;;;;7.15;3.03;;;12.50;99.90;;;;;;5002982;28;20061;-74
2022/10/17 06:08:02;;;;;;;5.32;2.97;;;12.50;99.90;;;;;;4982951;28;20022;-72
2022/10/17 06:10:28;;;;;;;5.40;2.60;;;12.60;99.90;;;;;;4986435;28;20574;-73
2022/10/17 06:12:53;;;;;;;6.57;3.22;;;12.60;99.90;;;;;;4987310;28;20117;-72
2022/10/17 06:15:19;;;;;;;9.15;2.70;;;12.60;99.90;;;;;;4980385;28;20019;-72
2022/10/17 06:17:44;;;;;;;7.72;2.88;;;12.60;99.90;;;;;;4986630;28;20402;-72
2022/10/17 06:20:10;;;;;;;7.88;3.10;;;12.70;99.90;;;;;;4983076;28;20058;-72
2022/10/17 06:22:36;;;;;;;6.15;2.80;;;12.70;99.90;;;;;;4987904;28;20031;-71
2022/10/17 06:25:01;;;;;;;11.98;3.15;;;12.80;99.90;;;;;;4984888;28;20038;-72
2022/10/17 06:27:27;;;;;;;6.45;2.85;;;12.80;99.90;;;;;;4987509;28;20044;-72
2022/10/17 06:29:52;;;;;;;9.90;3.38;;;12.80;99.90;;;;;;4999396;28;20035;-73
2022/10/17 06:32:20;;;;;;;6.57;3.25;;;12.80;99.90;;;;;;4982757;28;20018;-73
2022/10/17 06:34:46;;;;;;;8.00;2.90;;;12.80;99.90;;;;;;4985823;28;20038;-72
2022/10/17 06:37:12;;;;;;;4.50;2.70;;;12.80;99.90;;;;;;4984097;28;20022;-72
2022/10/17 06:39:38;;;;;;;8.57;3.13;;;12.80;99.90;;;;;;4985157;28;20065;-72
2022/10/17 06:42:04;;;;;;;12.27;3.90;;;12.80;99.90;;;;;;4986172;28;20025;-73
2022/10/17 06:44:30;;;;;;;13.27;4.90;;;12.90;99.90;;;;;;4999305;28;20441;-72
2022/10/17 06:47:00;;;;;;;14.52;5.30;;;12.90;99.90;;;;;;4980112;28;20033;-73
2022/10/17 06:49:26;;;;;;;10.40;5.43;;;12.90;99.90;;;;;;4984598;28;20428;-72
2022/10/17 06:51:52;;;;;;;15.50;5.28;;;12.90;99.90;;;;;;4993598;28;20482;-72
2022/10/17 06:54:18;;;;;;;9.23;4.40;;;13.00;99.90;;;;;;4993444;28;20097;-72
2022/10/17 06:56:43;;;;;;;8.25;4.15;;;13.10;99.90;;;;;;4992249;28;20530;-71
2022/10/17 06:59:09;;;;;;;13.68;4.53;;;13.10;99.90;;;;;;4992689;28;20030;-71
2022/10/17 07:01:38;;;;;;;8.80;3.88;;;13.20;99.90;;;;;;5012177;28;20437;-71
2022/10/17 07:04:10;;;;;;;10.45;3.72;;;13.30;99.90;;;;;;4990285;28;20030;-71
2022/10/17 07:06:37;;;;;;;8.15;3.47;;;13.30;99.90;;;;;;5008026;28;20483;-71
2022/10/17 07:09:05;;;;;;;12.45;3.53;;;13.30;99.90;;;;;;4986431;28;20030;-71
2022/10/17 07:11:33;;;;;;;11.23;3.60;;;13.40;99.90;;;;;;4992309;28;20379;-70
2022/10/17 07:14:05;;;;;;;13.52;3.90;;;13.40;99.90;;;;;;5000401;28;20106;-71
2022/10/17 07:16:31;;;;;;;9.32;3.45;;;13.50;99.90;;;;;;4992696;28;20069;-70
2022/10/17 07:19:08;;;;;;;9.27;3.10;;;13.60;99.90;;;;;;4994280;28;20411;-70
2022/10/17 07:21:37;;;;;;;7.82;3.40;;;13.60;99.90;;;;;;4996635;28;20026;-71
2022/10/17 07:24:06;;;;;;;6.78;3.25;;;13.70;99.90;;;;;;4996355;28;21302;-71
2022/10/17 07:26:32;;;;;;;9.25;3.25;;;13.70;99.90;;;;;;4996429;28;20045;-70
2022/10/17 07:29:05;;;;;;;11.48;3.05;;;13.70;99.90;;;;;;4996272;28;20138;-70
2022/10/17 07:31:37;;;;;;;6.63;2.90;;;13.80;99.90;;;;;;5000946;28;20014;-71
2022/10/17 07:34:05;;;;;;;6.53;3.17;;;13.90;99.90;;;;;;5017407;28;20267;-70
2022/10/17 07:36:37;;;;;;;5.55;2.70;;;13.90;99.90;;;;;;5001713;28;20080;-71
2022/10/17 07:39:15;;;;;;;6.80;3.20;;;14.00;99.90;;;;;;4996601;28;20030;-71
2022/10/17 07:41:40;;;;;;;8.30;3.42;;;14.10;99.90;;;;;;5005421;28;20395;-71
2022/10/17 07:44:14;;;;;;;8.13;2.97;;;14.10;99.90;;;;;;5021238;28;20022;-70
2022/10/17 07:46:42;;;;;;;7.78;3.13;;;14.20;99.90;;;;;;5012740;28;20022;-70
2022/10/17 07:49:08;;;;;;;6.20;3.15;;;14.30;99.90;;;;;;4996285;28;20512;-71
2022/10/17 07:51:42;;;;;;;4.88;2.17;;;14.30;99.90;;;;;;4998554;28;20023;-70
2022/10/17 07:54:20;;;;;;;6.97;2.55;;;14.40;99.90;;;;;;5020059;28;20023;-71
2022/10/17 07:56:49;;;;;;;10.10;2.97;;;14.40;99.90;;;;;;4998286;28;20026;-71
2022/10/17 07:59:23;;;;;;;12.40;2.85;;;14.50;99.90;;;;;;4993772;28;20026;-70
2022/10/17 08:01:55;;;;;;;6.47;2.33;;;14.60;99.90;;;;;;4995952;28;20031;-70
2022/10/17 08:04:25;;;;;;;6.05;2.97;;;14.70;99.90;;;;;;5004935;28;20151;-71
2022/10/17 08:06:56;;;;;;;7.18;2.90;;;14.70;99.90;;;;;;4995151;28;20041;-70
2022/10/17 08:09:21;;;;;;;10.15;2.47;;;14.80;99.90;;;;;;4998380;28;20066;-70
2022/10/17 08:11:47;;;;;;;7.78;2.72;;;14.80;99.90;;;;;;4995748;28;20117;-71
2022/10/17 08:14:16;;;;;;;4.63;2.70;;;14.90;99.90;;;;;;4995877;28;20498;-70
2022/10/17 08:16:42;;;;;;;4.35;2.40;;;15.00;99.90;;;;;;5002100;28;20054;-70
2022/10/17 08:19:13;;;;;;;6.22;2.42;;;15.00;99.90;;;;;;4994458;28;20048;-73
2022/10/17 08:21:40;;;;;;;6.25;2.45;;;15.10;99.90;;;;;;4989337;28;20026;-73
2022/10/17 08:24:08;;;;;;;7.07;2.33;;;15.20;99.90;;;;;;4980716;28;20034;-73
2022/10/17 08:26:37;;;;;;;7.28;2.83;;;15.30;99.90;;;;;;5006461;28;20031;-73
2022/10/17 08:29:15;;;;;;;7.03;2.50;;;15.40;99.90;;;;;;5004884;28;20030;-73
2022/10/17 08:31:41;;;;;;;6.72;2.08;;;15.50;99.90;;;;;;4993436;28;20022;-73
2022/10/17 08:34:07;;;;;;;7.50;2.40;;;15.50;99.90;;;;;;4989408;28;20711;-74
2022/10/17 08:36:33;;;;;;;5.43;2.80;;;15.70;99.90;;;;;;4996530;28;20411;-73
2022/10/17 08:38:59;;;;;;;7.95;2.50;;;15.70;99.90;;;;;;4980321;28;20035;-73
2022/10/17 08:41:43;;;;;;;6.88;2.72;;;15.80;99.90;;;;;;4991460;28;20019;-73
2022/10/17 08:44:42;;;;;;;9.32;2.80;;;15.90;99.90;;;;;;4990559;28;20506;-73
2022/10/17 08:47:36;;;;;;;8.77;2.63;;;15.90;99.90;;;;;;4988071;28;20030;-72
2022/10/17 08:50:06;;;;;;;4.95;2.70;;;16.00;99.90;;;;;;4988812;28;20038;-73
2022/10/17 08:52:51;;;;;;;5.15;1.90;;;16.10;99.90;;;;;;4991105;28;20056;-73
2022/10/17 08:55:32;;;;;;;5.65;2.42;;;16.10;99.90;;;;;;4990459;28;20080;-73
2022/10/17 08:57:58;;;;;;;6.70;2.40;;;16.20;99.90;;;;;;5005471;28;20039;-75
2022/10/17 09:00:25;;;;;;;8.80;2.17;;;16.30;99.90;;;;;;4992621;28;20514;-73
2022/10/17 09:03:25;;;;;;;7.75;2.20;;;16.40;99.90;;;;;;4991752;28;20026;-73
2022/10/17 09:06:02;;;;;;;8.27;2.42;;;16.50;99.90;;;;;;4990693;28;20049;-73
2022/10/17 09:08:49;;;;;;;5.53;1.88;;;16.60;99.90;;;;;;4990035;28;20031;-73
2022/10/17 09:11:49;;;;;;;7.45;2.47;;;16.80;99.90;;;;;;4989936;28;20073;-73
2022/10/17 09:14:32;;;;;;;5.07;1.85;;;16.80;99.90;;;;;;5004383;28;20033;-73
2022/10/17 09:17:23;;;;;;;5.97;1.83;;;17.00;99.90;;;;;;5007008;28;20046;-73
2022/10/17 09:20:14;;;;;;;5.65;2.50;;;17.10;99.90;;;;;;4989801;28;20072;-73
2022/10/17 09:22:57;;;;;;;5.20;1.77;;;17.20;99.90;;;;;;4989339;28;20080;-73
2022/10/17 09:25:23;;;;;;;4.13;1.90;;;17.40;99.90;;;;;;4984990;28;20138;-73
2022/10/17 09:28:12;;;;;;;6.90;2.35;;;17.50;99.90;;;;;;4988948;28;20046;-73
2022/10/17 09:30:58;;;;;;;5.53;2.55;;;17.60;99.90;;;;;;4970468;28;20547;-74
2022/10/17 09:33:37;;;;;;;4.93;2.08;;;17.70;99.90;;;;;;4985717;28;20034;-73
2022/10/17 09:36:18;;;;;;;6.63;2.22;;;17.80;99.90;;;;;;4986808;28;20133;-74
2022/10/17 09:38:48;;;;;;;5.10;1.80;;;17.90;99.90;;;;;;4986168;28;20499;-74
2022/10/17 09:41:37;;;;;;;10.77;2.20;;;18.00;99.90;;;;;;4988493;28;20030;-74
2022/10/17 09:44:17;;;;;;;13.75;2.38;;;18.20;99.90;;;;;;4987814;28;20488;-72
2022/10/17 09:46:57;;;;;;;7.28;2.42;;;18.30;99.90;;;;;;4975941;28;20034;-74
2022/10/17 09:49:47;;;;;;;7.38;2.40;;;18.40;99.90;;;;;;4979350;28;20101;-73
2022/10/17 09:52:38;;;;;;;5.47;2.38;;;18.50;99.90;;;;;;4986032;28;20121;-73
2022/10/17 09:55:41;;;;;;;7.63;2.83;;;18.60;99.90;;;;;;4993061;28;20018;-73
2022/10/17 09:58:08;;;;;;;14.52;2.85;;;18.70;99.90;;;;;;5000256;28;20041;-73
2022/10/17 10:00:46;;;;;;;8.90;2.10;;;18.80;99.90;;;;;;4986621;28;20069;-74
2022/10/17 10:03:26;;;;;;;6.68;2.00;;;18.90;99.90;;;;;;5108277;27;20221;-72
2022/10/17 10:06:02;;;;;;;3.42;1.73;;;19.00;99.90;;;;;;5101870;28;20493;-73
2022/10/17 10:08:47;;;;;;;5.43;2.42;;;19.10;99.90;;;;;;5087198;28;20028;-73
2022/10/17 10:11:13;;;;;;;5.07;2.22;;;19.30;99.90;;;;;;5083440;28;20024;-73
2022/10/17 10:13:39;;;;;;;4.45;1.50;;;19.40;99.90;;;;;;5078798;28;20044;-73
2022/10/17 10:16:16;;;;;;;3.05;1.73;;;19.50;99.90;;;;;;5082843;28;20120;-72
2022/10/17 10:18:42;;;;;;;5.47;2.10;;;19.60;99.90;;;;;;5088823;28;20020;-73
2022/10/17 10:21:22;;;;;;;6.63;1.80;;;19.70;99.90;;;;;;5083728;28;20043;-73
2022/10/17 10:24:13;;;;;;;10.80;1.90;;;19.90;99.90;;;;;;5089057;28;20020;-72
2022/10/17 10:26:41;;;;;;;6.60;2.30;;;20.00;99.90;;;;;;5078244;28;20088;-73
2022/10/17 10:29:52;;;;;;;3.13;1.55;;;20.10;99.90;;;;;;5079353;28;20359;-72
2022/10/17 10:32:25;;;;;;;3.95;1.70;;;20.20;99.90;;;;;;5074623;28;20051;-73
2022/10/17 10:34:51;;;;;;;2.28;1.35;;;20.30;99.90;;;;;;5080415;28;20409;-73
2022/10/17 10:37:29;;;;;;;4.05;1.75;;;20.50;99.90;;;;;;5078447;28;20023;-73
2022/10/17 10:40:00;;;;;;;4.72;1.58;;;20.60;99.90;;;;;;5084029;28;20020;-73
2022/10/17 10:42:40;;;;;;;4.32;1.50;;;20.60;99.90;;;;;;5088611;28;20024;-72
2022/10/17 10:45:27;;;;;;;5.47;1.75;;;20.80;99.90;;;;;;5080639;28;20047;-73
2022/10/17 10:48:23;;;;;;;3.83;1.95;;;20.90;99.90;;;;;;5080147;28;20028;-72
2022/10/17 10:50:55;;;;;;;6.93;2.13;;;21.00;99.90;;;;;;5085099;28;20082;-73
2022/10/17 10:53:58;;;;;;;3.95;2.25;;;21.10;99.90;;;;;;5082451;28;20051;-73
2022/10/17 10:56:27;;;;;;;4.75;2.00;;;21.20;99.90;;;;;;5082632;28;20132;-73
2022/10/17 10:58:53;;;;;;;8.18;2.05;;;21.30;99.90;;;;;;5081002;28;20126;-73
2022/10/17 11:01:33;;;;;;;13.70;2.30;;;21.40;99.90;;;;;;5087498;28;20044;-73
2022/10/17 11:04:34;;;;;;;5.32;2.00;;;21.50;99.90;;;;;;5087237;28;20107;-73
2022/10/17 11:07:05;;;;;;;31.85;10.02;;;21.60;99.90;;;;;;5086323;28;20107;-73
2022/10/17 11:09:49;;;;;;;52.20;20.27;;;21.70;99.90;;;;;;5083519;28;20497;-74
2022/10/17 11:12:26;;;;;;;28.63;11.95;;;21.90;99.90;;;;;;5087785;28;20077;-73
2022/10/17 11:15:29;;;;;;;13.75;5.05;;;21.90;99.90;;;;;;5073600;28;20020;-73
2022/10/17 11:18:05;;;;;;;6.60;2.47;;;22.00;99.90;;;;;;5070258;28;20048;-72
2022/10/17 11:20:52;;;;;;;6.72;2.20;;;22.00;99.90;;;;;;5071315;28;20028;-73
2022/10/17 11:23:36;;;;;;;5.40;1.77;;;22.10;99.90;;;;;;5070391;28;20036;-74
2022/10/17 11:26:07;;;;;;;6.10;1.63;;;22.10;99.90;;;;;;5068458;28;20017;-74
2022/10/17 11:28:33;;;;;;;16.55;1.83;;;22.20;99.90;;;;;;5072910;28;20017;-74
2022/10/17 11:31:16;;;;;;;3.42;2.05;;;22.20;99.90;;;;;;5067969;28;20032;-74
2022/10/17 11:33:55;;;;;;;3.55;1.48;;;22.20;99.90;;;;;;5066629;28;20361;-73
2022/10/17 11:36:25;;;;;;;5.43;1.90;;;22.20;99.90;;;;;;5063976;28;20044;-73
2022/10/17 11:39:04;;;;;;;6.85;1.75;;;22.20;99.90;;;;;;5075043;28;20040;-73
2022/10/17 11:41:33;;;;;;;6.57;1.67;;;22.10;99.90;;;;;;5074675;28;20770;-73
2022/10/17 11:44:04;;;;;;;5.40;2.00;;;22.10;99.90;;;;;;5072274;28;20025;-72
2022/10/17 11:46:34;;;;;;;6.93;2.28;;;22.10;99.90;;;;;;5068260;28;20475;-73
2022/10/17 11:49:10;;;;;;;3.95;1.52;;;22.00;99.90;;;;;;5073008;28;20020;-73
2022/10/17 11:52:00;;;;;;;11.93;2.20;;;22.00;99.90;;;;;;5067222;28;20079;-73
2022/10/17 11:54:40;;;;;;;3.78;1.90;;;22.00;99.90;;;;;;5047000;28;20037;-74
2022/10/17 11:57:39;;;;;;;4.97;1.98;;;21.90;99.90;;;;;;5071329;28;20020;-73
2022/10/17 12:00:40;;;;;;;3.90;1.80;;;22.00;99.90;;;;;;5070682;28;20028;-74
2022/10/17 12:03:35;;;;;;;7.53;2.15;;;22.10;99.90;;;;;;5069951;28;20057;-74
2022/10/17 12:06:24;;;;;;;6.65;1.75;;;22.10;99.90;;;;;;5073463;28;20032;-74
2022/10/17 12:09:07;;;;;;;4.00;1.80;;;22.20;99.90;;;;;;5066709;28;20024;-74
2022/10/17 12:11:41;;;;;;;9.82;2.42;;;22.30;99.90;;;;;;5071668;28;20046;-74
2022/10/17 12:14:32;;;;;;;4.25;2.15;;;22.30;99.90;;;;;;5067658;28;20366;-74
2022/10/17 12:16:58;;;;;;;7.47;2.05;;;22.30;99.90;;;;;;5067228;28;20153;-74
2022/10/17 12:19:27;;;;;;;7.13;2.45;;;22.30;99.90;;;;;;5071103;28;20103;-74
2022/10/17 12:22:00;;;;;;;5.70;1.88;;;22.40;99.90;;;;;;5075716;28;20013;-74
2022/10/17 12:24:56;;;;;;;9.32;2.08;;;22.50;99.90;;;;;;5059618;28;20029;-74
2022/10/17 12:27:36;;;;;;;8.23;2.05;;;22.50;99.90;;;;;;5064289;28;20032;-74
2022/10/17 12:30:11;;;;;;;3.58;1.80;;;22.60;99.90;;;;;;5074964;28;20021;-74
2022/10/17 12:32:51;;;;;;;4.15;1.60;;;22.60;99.50;;;;;;5065438;28;20577;-74
2022/10/17 12:35:20;;;;;;;24.25;1.90;;;22.60;99.40;;;;;;5070165;28;20039;-74
2022/10/17 12:37:52;;;;;;;4.78;1.65;;;22.60;99.30;;;;;;5071316;28;20436;-73
2022/10/17 12:40:36;;;;;;;5.20;1.80;;;22.70;98.80;;;;;;5065135;28;20028;-74
2022/10/17 12:43:21;;;;;;;;;;;22.80;98.40;;;;;;5074341;28;20089;-73
2022/10/17 12:45:55;;;;;;;3.85;1.67;;;22.80;97.80;;;;;;5071180;28;19961;-74
2022/10/17 12:48:33;;;;;;;;;;;22.80;97.80;;;;;;5055780;28;20654;-73
2022/10/17 12:51:03;;;;;;;6.65;1.55;;;22.90;96.70;;;;;;5062068;28;20361;-74
2022/10/17 12:53:40;;;;;;;2.53;1.52;;;22.90;96.30;;;;;;5074630;28;20028;-74
2022/10/17 12:56:06;;;;;;;6.13;1.98;;;23.00;95.80;;;;;;5066098;28;20101;-73
2022/10/17 12:58:34;;;;;;;3.42;1.52;;;22.90;95.60;;;;;;5069957;28;20435;-74
2022/10/17 13:01:01;;;;;;;3.38;1.77;;;23.00;95.30;;;;;;5065599;28;20020;-74
2022/10/17 13:03:41;;;;;;;8.65;1.63;;;23.00;95.10;;;;;;5069451;28;20043;-73
2022/10/17 13:06:12;;;;;;;7.85;1.23;;;23.10;94.80;;;;;;5069773;28;20442;-74
2022/10/17 13:08:42;;;;;;;11.55;4.30;;;23.10;94.80;;;;;;5066781;28;20459;-75
2022/10/17 13:11:08;;;;;;;5.25;1.65;;;23.20;94.40;;;;;;5057225;28;20455;-73
2022/10/17 13:13:42;;;;;;;6.75;1.40;;;23.20;93.10;;;;;;5064991;28;20031;-73
2022/10/17 13:16:08;;;;;;;11.40;4.57;;;23.20;92.50;;;;;;5066344;28;20028;-74
2022/10/17 13:18:40;;;;;;;5.25;2.22;;;23.30;92.10;;;;;;5068475;28;20487;-75